Impacts TAF Board
For situational awareness. Not to be used for flight planning purposes.
IDs:

KRDM - Redmond Muni, OR, US

Issued at 1720 UTC 08 Aug 2020
Updated at 2155 UTC 08 Aug 2020
Potential Impact None Slight Moderate High
Time2056Z 08/22Z 08/23Z 09/00Z 09/01Z 09/02Z 09/03Z 09/04Z 09/05Z 09/06Z 09/07Z 09/08Z 09/09Z 09/10Z>>
Type OBS PRVL PRVL PRVL PRVL PRVL PRVL PRVL PRVL PRVL PRVL PRVL PRVL PRVL
VIS 10 >6 >6 >6 >6 >6 >6 >6 >6 >6 >6 >6 >6 >6
CIG -- -- -- -- -- -- -- -- -- -- -- -- -- --
Cover CLR FEW FEW FEW FEW FEW FEW FEW SKC SKC SKC SKC SKC SKC
FltCat VFR VFR VFR VFR VFR VFR VFR VFR VFR VFR VFR VFR VFR VFR
WX -- -- -- -- -- -- -- -- -- -- -- -- -- --
WDir 350 330 330 330 330 330 330 330 VRB VRB VRB VRB VRB VRB
WSpd 10 12 12 12 12 12 12 12 5 5 5 5 5 5
WGst -- 20 20 20 20 20 20 20 -- -- -- -- -- --
Raw TAF
KRDM 081720Z 0818/0918 34007KT P6SM FEW300
  FM082200 33012G20KT P6SM FEW300
  FM090500 VRB05KT P6SM SKC
  FM091730 35010G18KT P6SM SKC


Raw METAR
KRDM 082056Z 35010KT 10SM CLR 26/07 A3011 RMK AO2 SLP178 T02610067 58014
KRDM 081956Z 26007KT 10SM CLR 26/07 A3013 RMK AO2 SLP181 T02560067
KRDM 081856Z 00000KT 10SM CLR 24/06 A3014 RMK AO2 SLP184 T02440061

METAR Board
Radar Display
Forecast Discussion
For situational awareness. Not to be used for flight planning purposes.